sensor_id;sensor_type;location;lat;lon;timestamp;pressure;altitude;pressure_sealevel;temperature;humidity
16664;BME280;8445;51.270;9.434;2022-12-24T00:01:22;98368.72;;;10.91;86.57
16664;BME280;8445;51.270;9.434;2022-12-24T00:03:47;98378.50;;;10.91;86.13
16664;BME280;8445;51.270;9.434;2022-12-24T00:06:19;98373.88;;;10.93;86.18
16664;BME280;8445;51.270;9.434;2022-12-24T00:08:45;98379.88;;;10.95;86.21
16664;BME280;8445;51.270;9.434;2022-12-24T00:11:10;98375.84;;;10.91;86.26
16664;BME280;8445;51.270;9.434;2022-12-24T00:13:36;98378.78;;;10.88;86.12
16664;BME280;8445;51.270;9.434;2022-12-24T00:16:02;98374.34;;;10.78;85.96
16664;BME280;8445;51.270;9.434;2022-12-24T00:18:27;98377.13;;;10.67;85.86
16664;BME280;8445;51.270;9.434;2022-12-24T00:20:53;98381.34;;;10.60;85.90
16664;BME280;8445;51.270;9.434;2022-12-24T00:23:19;98384.13;;;10.58;86.11
16664;BME280;8445;51.270;9.434;2022-12-24T00:25:44;98393.28;;;10.64;85.79
16664;BME280;8445;51.270;9.434;2022-12-24T00:28:11;98394.97;;;10.65;86.02
16664;BME280;8445;51.270;9.434;2022-12-24T00:30:38;98397.47;;;10.66;85.43
16664;BME280;8445;51.270;9.434;2022-12-24T00:33:04;98401.63;;;10.69;85.63
16664;BME280;8445;51.270;9.434;2022-12-24T00:35:32;98399.28;;;10.66;85.69
16664;BME280;8445;51.270;9.434;2022-12-24T00:37:58;98403.47;;;10.68;85.58
16664;BME280;8445;51.270;9.434;2022-12-24T00:40:23;98408.47;;;10.72;85.72
16664;BME280;8445;51.270;9.434;2022-12-24T00:42:49;98414.47;;;10.74;85.50
16664;BME280;8445;51.270;9.434;2022-12-24T00:45:14;98410.25;;;10.71;85.18
16664;BME280;8445;51.270;9.434;2022-12-24T00:47:40;98414.47;;;10.74;85.45
16664;BME280;8445;51.270;9.434;2022-12-24T00:50:06;98427.81;;;10.72;85.62
16664;BME280;8445;51.270;9.434;2022-12-24T00:52:32;98431.44;;;10.71;85.37
16664;BME280;8445;51.270;9.434;2022-12-24T00:54:57;98431.59;;;10.70;85.67
16664;BME280;8445;51.270;9.434;2022-12-24T00:57:23;98447.28;;;10.71;85.70
16664;BME280;8445;51.270;9.434;2022-12-24T00:59:48;98453.16;;;10.65;86.22
16664;BME280;8445;51.270;9.434;2022-12-24T01:02:13;98454.00;;;10.65;85.90
16664;BME280;8445;51.270;9.434;2022-12-24T01:04:39;98461.25;;;10.53;86.21
16664;BME280;8445;51.270;9.434;2022-12-24T01:07:23;98458.31;;;10.57;86.07
16664;BME280;8445;51.270;9.434;2022-12-24T01:09:48;98462.63;;;10.48;86.31
16664;BME280;8445;51.270;9.434;2022-12-24T01:12:14;98464.53;;;10.36;86.76
16664;BME280;8445;51.270;9.434;2022-12-24T01:14:39;98476.78;;;10.27;87.11
16664;BME280;8445;51.270;9.434;2022-12-24T01:17:04;98475.94;;;10.17;87.33
16664;BME280;8445;51.270;9.434;2022-12-24T01:19:30;98480.91;;;10.10;87.70
16664;BME280;8445;51.270;9.434;2022-12-24T01:21:57;98481.75;;;10.01;87.25
16664;BME280;8445;51.270;9.434;2022-12-24T01:24:22;98483.34;;;9.82;87.27
16664;BME280;8445;51.270;9.434;2022-12-24T01:26:48;98483.72;;;9.68;87.86
16664;BME280;8445;51.270;9.434;2022-12-24T01:29:14;98491.00;;;9.54;87.84
16664;BME280;8445;51.270;9.434;2022-12-24T01:31:39;98498.75;;;9.46;87.53
16664;BME280;8445;51.270;9.434;2022-12-24T01:34:05;98499.16;;;9.41;87.36
16664;BME280;8445;51.270;9.434;2022-12-24T01:36:30;98498.44;;;9.39;87.61
16664;BME280;8445;51.270;9.434;2022-12-24T01:38:56;98494.03;;;9.40;87.04
16664;BME280;8445;51.270;9.434;2022-12-24T01:41:22;98499.13;;;9.31;87.13
16664;BME280;8445;51.270;9.434;2022-12-24T01:46:41;98504.06;;;9.25;86.58
16664;BME280;8445;51.270;9.434;2022-12-24T01:49:10;98510.31;;;9.24;87.14
16664;BME280;8445;51.270;9.434;2022-12-24T01:51:51;98511.97;;;9.25;87.90
16664;BME280;8445;51.270;9.434;2022-12-24T01:54:26;98528.41;;;9.28;87.07
16664;BME280;8445;51.270;9.434;2022-12-24T01:56:59;98515.91;;;9.30;87.63
16664;BME280;8445;51.270;9.434;2022-12-24T01:59:25;98535.97;;;9.43;86.65
16664;BME280;8445;51.270;9.434;2022-12-24T02:01:52;98521.16;;;9.52;86.39
16664;BME280;8445;51.270;9.434;2022-12-24T02:06:56;98529.66;;;9.55;86.06
16664;BME280;8445;51.270;9.434;2022-12-24T02:09:21;98533.00;;;9.57;86.10
16664;BME280;8445;51.270;9.434;2022-12-24T02:11:47;98539.25;;;9.56;85.89
16664;BME280;8445;51.270;9.434;2022-12-24T02:14:14;98541.88;;;9.56;86.12
16664;BME280;8445;51.270;9.434;2022-12-24T02:16:42;98554.81;;;9.59;86.00
16664;BME280;8445;51.270;9.434;2022-12-24T02:22:39;98577.47;;;9.83;84.27
16664;BME280;8445;51.270;9.434;2022-12-24T02:27:57;98571.13;;;9.96;84.29
16664;BME280;8445;51.270;9.434;2022-12-24T02:30:37;98578.78;;;9.99;83.51
16664;BME280;8445;51.270;9.434;2022-12-24T02:33:23;98577.69;;;10.01;83.34
16664;BME280;8445;51.270;9.434;2022-12-24T02:36:13;98587.81;;;9.96;84.46
16664;BME280;8445;51.270;9.434;2022-12-24T02:38:50;98575.03;;;10.01;82.33
16664;BME280;8445;51.270;9.434;2022-12-24T02:41:22;98599.22;;;9.97;82.42
16664;BME280;8445;51.270;9.434;2022-12-24T02:43:50;98600.72;;;9.89;83.12
16664;BME280;8445;51.270;9.434;2022-12-24T02:46:21;98599.22;;;9.75;83.29
16664;BME280;8445;51.270;9.434;2022-12-24T02:48:50;98608.06;;;9.64;83.52
16664;BME280;8445;51.270;9.434;2022-12-24T02:51:21;98609.09;;;9.52;83.75
16664;BME280;8445;51.270;9.434;2022-12-24T02:53:47;98616.66;;;9.36;83.85
16664;BME280;8445;51.270;9.434;2022-12-24T02:56:23;98626.41;;;9.24;83.90
16664;BME280;8445;51.270;9.434;2022-12-24T03:02:23;98629.25;;;8.99;84.15
16664;BME280;8445;51.270;9.434;2022-12-24T03:05:12;98634.72;;;8.86;84.33
16664;BME280;8445;51.270;9.434;2022-12-24T03:08:48;98642.66;;;8.75;84.25
16664;BME280;8445;51.270;9.434;2022-12-24T03:11:01;98637.06;;;8.57;84.12
16664;BME280;8445;51.270;9.434;2022-12-24T03:13:29;98642.94;;;8.49;84.11
16664;BME280;8445;51.270;9.434;2022-12-24T03:15:55;98641.25;;;8.37;83.74
16664;BME280;8445;51.270;9.434;2022-12-24T03:18:25;98659.22;;;8.31;84.64
16664;BME280;8445;51.270;9.434;2022-12-24T03:21:12;98658.84;;;8.36;85.16
16664;BME280;8445;51.270;9.434;2022-12-24T03:23:38;98665.06;;;8.46;83.93
16664;BME280;8445;51.270;9.434;2022-12-24T03:26:06;98675.50;;;8.59;83.77
16664;BME280;8445;51.270;9.434;2022-12-24T03:28:34;98684.25;;;8.71;83.36
16664;BME280;8445;51.270;9.434;2022-12-24T03:31:05;98679.66;;;8.85;83.34
16664;BME280;8445;51.270;9.434;2022-12-24T03:33:31;98687.53;;;8.96;83.31
16664;BME280;8445;51.270;9.434;2022-12-24T03:35:57;98698.47;;;9.03;83.52
16664;BME280;8445;51.270;9.434;2022-12-24T03:38:22;98694.94;;;9.14;83.56
16664;BME280;8445;51.270;9.434;2022-12-24T03:40:48;98694.19;;;9.23;83.67
16664;BME280;8445;51.270;9.434;2022-12-24T03:43:13;98701.38;;;9.32;82.98
16664;BME280;8445;51.270;9.434;2022-12-24T03:45:39;98705.69;;;9.33;83.01
16664;BME280;8445;51.270;9.434;2022-12-24T03:48:05;98704.28;;;9.51;82.49
16664;BME280;8445;51.270;9.434;2022-12-24T03:50:31;98705.84;;;9.53;81.44
16664;BME280;8445;51.270;9.434;2022-12-24T03:52:56;98718.31;;;9.51;81.74
16664;BME280;8445;51.270;9.434;2022-12-24T03:55:22;98718.81;;;9.45;80.99
16664;BME280;8445;51.270;9.434;2022-12-24T03:57:47;98725.13;;;9.32;80.78
16664;BME280;8445;51.270;9.434;2022-12-24T04:00:13;98725.25;;;9.19;80.94
16664;BME280;8445;51.270;9.434;2022-12-24T04:02:39;98727.59;;;9.01;81.19
16664;BME280;8445;51.270;9.434;2022-12-24T04:05:05;98730.25;;;8.90;81.00
16664;BME280;8445;51.270;9.434;2022-12-24T04:07:32;98717.34;;;8.75;81.49
16664;BME280;8445;51.270;9.434;2022-12-24T04:09:57;98724.03;;;8.80;81.19
16664;BME280;8445;51.270;9.434;2022-12-24T04:12:23;98739.72;;;8.70;81.46
16664;BME280;8445;51.270;9.434;2022-12-24T04:14:50;98732.91;;;8.79;81.43
16664;BME280;8445;51.270;9.434;2022-12-24T04:17:16;98737.56;;;8.86;81.54
16664;BME280;8445;51.270;9.434;2022-12-24T04:19:41;98740.53;;;8.93;81.73
16664;BME280;8445;51.270;9.434;2022-12-24T04:22:07;98747.97;;;8.99;81.94
16664;BME280;8445;51.270;9.434;2022-12-24T04:24:34;98746.19;;;9.00;81.99
16664;BME280;8445;51.270;9.434;2022-12-24T04:27:00;98746.19;;;9.00;82.14
16664;BME280;8445;51.270;9.434;2022-12-24T04:29:25;98745.56;;;8.96;82.29
16664;BME280;8445;51.270;9.434;2022-12-24T04:31:51;98755.91;;;8.88;82.73
16664;BME280;8445;51.270;9.434;2022-12-24T04:34:16;98748.50;;;8.82;82.53
16664;BME280;8445;51.270;9.434;2022-12-24T04:36:42;98754.00;;;8.79;82.66
16664;BME280;8445;51.270;9.434;2022-12-24T04:39:07;98756.88;;;8.64;82.83
16664;BME280;8445;51.270;9.434;2022-12-24T04:41:32;98756.34;;;8.48;82.67
16664;BME280;8445;51.270;9.434;2022-12-24T04:43:58;98744.72;;;8.27;82.82
16664;BME280;8445;51.270;9.434;2022-12-24T04:46:26;98753.69;;;8.13;83.84
16664;BME280;8445;51.270;9.434;2022-12-24T04:48:52;98754.16;;;8.07;83.69
16664;BME280;8445;51.270;9.434;2022-12-24T04:51:19;98758.44;;;7.97;83.34
16664;BME280;8445;51.270;9.434;2022-12-24T04:53:45;98755.75;;;7.85;84.08
16664;BME280;8445;51.270;9.434;2022-12-24T04:56:13;98766.28;;;7.85;82.89
16664;BME280;8445;51.270;9.434;2022-12-24T04:58:39;98757.88;;;7.80;82.85
16664;BME280;8445;51.270;9.434;2022-12-24T05:01:06;98759.19;;;7.75;82.88
16664;BME280;8445;51.270;9.434;2022-12-24T05:03:33;98765.28;;;7.75;82.53
16664;BME280;8445;51.270;9.434;2022-12-24T05:06:06;98763.84;;;7.71;83.76
16664;BME280;8445;51.270;9.434;2022-12-24T05:08:32;98764.47;;;7.75;83.13
16664;BME280;8445;51.270;9.434;2022-12-24T05:10:59;98774.13;;;7.74;82.34
16664;BME280;8445;51.270;9.434;2022-12-24T05:13:26;98769.59;;;7.65;82.38
16664;BME280;8445;51.270;9.434;2022-12-24T05:15:52;98778.88;;;7.57;82.29
16664;BME280;8445;51.270;9.434;2022-12-24T05:18:17;98781.38;;;7.59;82.61
16664;BME280;8445;51.270;9.434;2022-12-24T05:20:43;98790.75;;;7.63;82.81
16664;BME280;8445;51.270;9.434;2022-12-24T05:23:14;98792.34;;;7.77;82.55
16664;BME280;8445;51.270;9.434;2022-12-24T05:25:59;98788.75;;;7.78;81.78
16664;BME280;8445;51.270;9.434;2022-12-24T05:28:44;98789.03;;;7.86;81.87
16664;BME280;8445;51.270;9.434;2022-12-24T05:31:10;98784.75;;;7.97;81.84
16664;BME280;8445;51.270;9.434;2022-12-24T05:33:35;98789.56;;;8.03;81.73
16664;BME280;8445;51.270;9.434;2022-12-24T05:36:01;98796.41;;;8.06;81.35
16664;BME280;8445;51.270;9.434;2022-12-24T05:38:26;98792.44;;;8.00;81.99
16664;BME280;8445;51.270;9.434;2022-12-24T05:40:51;98788.94;;;7.99;81.76
16664;BME280;8445;51.270;9.434;2022-12-24T05:43:17;98798.28;;;7.92;81.36
16664;BME280;8445;51.270;9.434;2022-12-24T05:45:42;98798.13;;;7.82;81.27
16664;BME280;8445;51.270;9.434;2022-12-24T05:48:08;98796.38;;;7.70;81.83
16664;BME280;8445;51.270;9.434;2022-12-24T05:50:35;98804.75;;;7.64;81.13
16664;BME280;8445;51.270;9.434;2022-12-24T05:53:03;98805.63;;;7.51;81.16
16664;BME280;8445;51.270;9.434;2022-12-24T05:55:29;98807.03;;;7.44;81.73
16664;BME280;8445;51.270;9.434;2022-12-24T05:57:54;98807.47;;;7.38;81.54
16664;BME280;8445;51.270;9.434;2022-12-24T06:00:20;98806.97;;;7.33;82.25
16664;BME280;8445;51.270;9.434;2022-12-24T06:02:45;98814.75;;;7.34;82.17
16664;BME280;8445;51.270;9.434;2022-12-24T06:05:11;98819.69;;;7.39;82.64
16664;BME280;8445;51.270;9.434;2022-12-24T06:07:36;98825.22;;;7.47;83.56
16664;BME280;8445;51.270;9.434;2022-12-24T06:10:02;98826.25;;;7.57;83.41
16664;BME280;8445;51.270;9.434;2022-12-24T06:12:28;98830.81;;;7.67;83.82
16664;BME280;8445;51.270;9.434;2022-12-24T06:14:53;98826.56;;;7.77;83.73
16664;BME280;8445;51.270;9.434;2022-12-24T06:17:19;98831.91;;;7.89;83.63
16664;BME280;8445;51.270;9.434;2022-12-24T06:19:44;98820.91;;;7.95;83.71
16664;BME280;8445;51.270;9.434;2022-12-24T06:22:09;98826.69;;;8.00;84.08
16664;BME280;8445;51.270;9.434;2022-12-24T06:24:35;98833.13;;;7.96;83.98
16664;BME280;8445;51.270;9.434;2022-12-24T06:27:00;98832.75;;;7.89;83.75
16664;BME280;8445;51.270;9.434;2022-12-24T06:29:26;98833.81;;;7.86;84.22
16664;BME280;8445;51.270;9.434;2022-12-24T06:31:51;98833.06;;;7.84;84.20
16664;BME280;8445;51.270;9.434;2022-12-24T06:34:17;98835.09;;;7.81;84.02
16664;BME280;8445;51.270;9.434;2022-12-24T06:36:42;98844.06;;;7.78;84.79
16664;BME280;8445;51.270;9.434;2022-12-24T06:39:08;98851.63;;;7.83;85.61
16664;BME280;8445;51.270;9.434;2022-12-24T06:41:33;98846.16;;;7.86;85.57
16664;BME280;8445;51.270;9.434;2022-12-24T06:43:59;98848.56;;;7.89;84.96
16664;BME280;8445;51.270;9.434;2022-12-24T06:46:24;98859.47;;;7.96;85.19
16664;BME280;8445;51.270;9.434;2022-12-24T06:48:50;98842.34;;;8.01;85.70
16664;BME280;8445;51.270;9.434;2022-12-24T06:51:17;98833.63;;;8.01;86.19
16664;BME280;8445;51.270;9.434;2022-12-24T06:53:44;98843.16;;;7.91;85.25
16664;BME280;8445;51.270;9.434;2022-12-24T06:56:11;98843.66;;;7.71;84.46
16664;BME280;8445;51.270;9.434;2022-12-24T06:58:37;98851.34;;;7.50;84.44
16664;BME280;8445;51.270;9.434;2022-12-24T07:01:06;98868.44;;;7.32;85.59
16664;BME280;8445;51.270;9.434;2022-12-24T07:03:32;98877.59;;;7.26;85.54
16664;BME280;8445;51.270;9.434;2022-12-24T07:05:58;98884.44;;;7.29;85.90
16664;BME280;8445;51.270;9.434;2022-12-24T07:08:23;98882.09;;;7.37;86.55
16664;BME280;8445;51.270;9.434;2022-12-24T07:10:50;98889.34;;;7.46;88.71
16664;BME280;8445;51.270;9.434;2022-12-24T07:13:16;98886.66;;;7.59;88.02
16664;BME280;8445;51.270;9.434;2022-12-24T07:15:41;98889.38;;;7.70;87.79
16664;BME280;8445;51.270;9.434;2022-12-24T07:18:07;98896.50;;;7.81;88.46
16664;BME280;8445;51.270;9.434;2022-12-24T07:20:33;98891.72;;;7.86;87.36
16664;BME280;8445;51.270;9.434;2022-12-24T07:22:58;98899.41;;;7.90;87.01
16664;BME280;8445;51.270;9.434;2022-12-24T07:25:24;98907.53;;;7.86;86.96
16664;BME280;8445;51.270;9.434;2022-12-24T07:27:50;98917.47;;;7.83;86.56
16664;BME280;8445;51.270;9.434;2022-12-24T07:30:15;98912.50;;;7.78;86.81
16664;BME280;8445;51.270;9.434;2022-12-24T07:32:41;98918.00;;;7.75;86.94
16664;BME280;8445;51.270;9.434;2022-12-24T07:35:06;98908.13;;;7.66;86.67
16664;BME280;8445;51.270;9.434;2022-12-24T07:37:32;98924.81;;;7.53;86.91
16664;BME280;8445;51.270;9.434;2022-12-24T07:39:57;98919.53;;;7.40;86.73
16664;BME280;8445;51.270;9.434;2022-12-24T07:42:23;98925.88;;;7.38;87.74
16664;BME280;8445;51.270;9.434;2022-12-24T07:44:48;98915.78;;;7.32;88.13
16664;BME280;8445;51.270;9.434;2022-12-24T07:47:14;98914.31;;;7.27;87.27
16664;BME280;8445;51.270;9.434;2022-12-24T07:49:39;98934.09;;;7.20;87.22
16664;BME280;8445;51.270;9.434;2022-12-24T07:52:05;98933.47;;;7.17;86.92
16664;BME280;8445;51.270;9.434;2022-12-24T07:54:30;98941.91;;;7.22;87.73
16664;BME280;8445;51.270;9.434;2022-12-24T07:56:56;98933.88;;;7.23;87.66
16664;BME280;8445;51.270;9.434;2022-12-24T07:59:21;98940.22;;;7.21;87.64
16664;BME280;8445;51.270;9.434;2022-12-24T08:01:47;98928.31;;;7.15;87.56
16664;BME280;8445;51.270;9.434;2022-12-24T08:04:12;98940.00;;;7.11;87.32
16664;BME280;8445;51.270;9.434;2022-12-24T08:06:38;98949.91;;;7.07;87.70
16664;BME280;8445;51.270;9.434;2022-12-24T08:09:04;98935.19;;;7.05;87.76
16664;BME280;8445;51.270;9.434;2022-12-24T08:11:30;98947.59;;;7.03;87.50
16664;BME280;8445;51.270;9.434;2022-12-24T08:13:55;98958.31;;;7.00;87.72
16664;BME280;8445;51.270;9.434;2022-12-24T08:16:21;98963.56;;;7.00;87.78
16664;BME280;8445;51.270;9.434;2022-12-24T08:18:46;98959.25;;;6.99;87.86
16664;BME280;8445;51.270;9.434;2022-12-24T08:21:12;98960.75;;;7.03;87.97
16664;BME280;8445;51.270;9.434;2022-12-24T08:23:38;98967.78;;;7.15;88.78
16664;BME280;8445;51.270;9.434;2022-12-24T08:26:06;98955.03;;;7.35;91.92
16664;BME280;8445;51.270;9.434;2022-12-24T08:28:32;98966.28;;;7.50;90.30
16664;BME280;8445;51.270;9.434;2022-12-24T08:30:58;98969.84;;;7.62;89.80
16664;BME280;8445;51.270;9.434;2022-12-24T08:33:26;98968.03;;;7.75;90.08
16664;BME280;8445;51.270;9.434;2022-12-24T08:35:53;98966.19;;;7.89;90.82
16664;BME280;8445;51.270;9.434;2022-12-24T08:38:19;98964.47;;;8.00;90.35
16664;BME280;8445;51.270;9.434;2022-12-24T08:40:45;98962.34;;;8.06;89.85
16664;BME280;8445;51.270;9.434;2022-12-24T08:43:18;98975.19;;;8.10;90.62
16664;BME280;8445;51.270;9.434;2022-12-24T08:45:44;98970.22;;;8.19;90.38
16664;BME280;8445;51.270;9.434;2022-12-24T08:48:10;98979.13;;;8.29;90.46
16664;BME280;8445;51.270;9.434;2022-12-24T08:50:40;98996.66;;;8.41;90.57
16664;BME280;8445;51.270;9.434;2022-12-24T08:53:06;99005.63;;;8.52;90.27
16664;BME280;8445;51.270;9.434;2022-12-24T08:55:31;99004.94;;;8.61;90.44
16664;BME280;8445;51.270;9.434;2022-12-24T08:57:58;99011.22;;;8.71;90.11
16664;BME280;8445;51.270;9.434;2022-12-24T09:00:24;99017.22;;;8.73;89.96
16664;BME280;8445;51.270;9.434;2022-12-24T09:02:50;99017.97;;;8.75;89.69
16664;BME280;8445;51.270;9.434;2022-12-24T09:05:15;99016.06;;;8.78;89.37
16664;BME280;8445;51.270;9.434;2022-12-24T09:07:41;99028.28;;;8.79;89.39
16664;BME280;8445;51.270;9.434;2022-12-24T09:10:07;99026.00;;;8.85;89.64
16664;BME280;8445;51.270;9.434;2022-12-24T09:12:33;99032.66;;;9.02;90.25
16664;BME280;8445;51.270;9.434;2022-12-24T09:14:58;99027.91;;;9.19;90.55
16664;BME280;8445;51.270;9.434;2022-12-24T09:17:24;99033.00;;;9.33;90.27
16664;BME280;8445;51.270;9.434;2022-12-24T09:19:49;99042.34;;;9.49;90.27
16664;BME280;8445;51.270;9.434;2022-12-24T09:22:15;99050.28;;;9.60;90.36
16664;BME280;8445;51.270;9.434;2022-12-24T09:24:40;99051.13;;;9.72;90.33
16664;BME280;8445;51.270;9.434;2022-12-24T09:27:06;99049.22;;;9.86;90.11
16664;BME280;8445;51.270;9.434;2022-12-24T09:29:31;99038.88;;;9.94;90.18
16664;BME280;8445;51.270;9.434;2022-12-24T09:31:57;99061.09;;;10.03;90.01
16664;BME280;8445;51.270;9.434;2022-12-24T09:34:23;99058.69;;;10.11;89.84
16664;BME280;8445;51.270;9.434;2022-12-24T09:36:49;99065.31;;;10.17;89.81
16664;BME280;8445;51.270;9.434;2022-12-24T09:39:16;99066.50;;;10.24;90.01
16664;BME280;8445;51.270;9.434;2022-12-24T09:45:05;99065.38;;;10.38;89.87
16664;BME280;8445;51.270;9.434;2022-12-24T09:52:54;99073.09;;;10.52;90.44
16664;BME280;8445;51.270;9.434;2022-12-24T09:55:28;99067.56;;;10.56;90.21
16664;BME280;8445;51.270;9.434;2022-12-24T09:57:55;99086.50;;;10.61;90.32
16664;BME280;8445;51.270;9.434;2022-12-24T10:00:29;99084.22;;;10.67;90.17
16664;BME280;8445;51.270;9.434;2022-12-24T10:02:55;99081.91;;;10.74;90.59
16664;BME280;8445;51.270;9.434;2022-12-24T10:08:22;99086.44;;;10.83;90.13
16664;BME280;8445;51.270;9.434;2022-12-24T10:10:54;99091.81;;;10.93;90.80
16664;BME280;8445;51.270;9.434;2022-12-24T10:13:59;99096.50;;;11.01;89.74
16664;BME280;8445;51.270;9.434;2022-12-24T10:19:26;99104.31;;;11.24;89.91
16664;BME280;8445;51.270;9.434;2022-12-24T10:22:24;99102.84;;;11.31;88.03
16664;BME280;8445;51.270;9.434;2022-12-24T10:27:25;99108.59;;;11.36;89.69
16664;BME280;8445;51.270;9.434;2022-12-24T10:30:00;99108.16;;;11.31;89.20
16664;BME280;8445;51.270;9.434;2022-12-24T10:32:31;99106.72;;;11.27;89.37
16664;BME280;8445;51.270;9.434;2022-12-24T10:34:59;99105.75;;;11.28;89.92
16664;BME280;8445;51.270;9.434;2022-12-24T10:37:29;99114.09;;;11.23;88.90
16664;BME280;8445;51.270;9.434;2022-12-24T10:39:57;99111.81;;;11.19;88.83
16664;BME280;8445;51.270;9.434;2022-12-24T10:42:34;99118.09;;;11.18;88.81
16664;BME280;8445;51.270;9.434;2022-12-24T10:45:05;99126.88;;;11.18;89.10
16664;BME280;8445;51.270;9.434;2022-12-24T10:47:36;99130.78;;;11.24;88.80
16664;BME280;8445;51.270;9.434;2022-12-24T10:50:11;99120.41;;;11.32;89.39
16664;BME280;8445;51.270;9.434;2022-12-24T10:52:40;99129.28;;;11.42;89.36
16664;BME280;8445;51.270;9.434;2022-12-24T10:55:19;99128.91;;;11.47;89.18
16664;BME280;8445;51.270;9.434;2022-12-24T10:57:56;99128.00;;;11.58;88.76
16664;BME280;8445;51.270;9.434;2022-12-24T11:00:24;99127.22;;;11.67;90.11
16664;BME280;8445;51.270;9.434;2022-12-24T11:03:50;99126.72;;;11.74;88.74
16664;BME280;8445;51.270;9.434;2022-12-24T11:06:03;99128.53;;;11.83;88.35
16664;BME280;8445;51.270;9.434;2022-12-24T11:08:28;99132.63;;;11.87;89.57
16664;BME280;8445;51.270;9.434;2022-12-24T11:10:56;99138.19;;;11.84;88.23
16664;BME280;8445;51.270;9.434;2022-12-24T11:13:26;99140.00;;;11.83;88.19
16664;BME280;8445;51.270;9.434;2022-12-24T11:18:51;99138.78;;;11.88;88.84
16664;BME280;8445;51.270;9.434;2022-12-24T11:21:25;99135.00;;;11.90;88.79
16664;BME280;8445;51.270;9.434;2022-12-24T11:23:59;99125.22;;;12.02;88.00
16664;BME280;8445;51.270;9.434;2022-12-24T11:26:29;99113.78;;;12.11;87.73
16664;BME280;8445;51.270;9.434;2022-12-24T11:31:33;99119.63;;;12.46;89.25
16664;BME280;8445;51.270;9.434;2022-12-24T11:34:17;99115.19;;;12.66;87.88
16664;BME280;8445;51.270;9.434;2022-12-24T11:36:46;99124.28;;;12.73;87.58
16664;BME280;8445;51.270;9.434;2022-12-24T11:39:20;99127.38;;;12.69;86.90
16664;BME280;8445;51.270;9.434;2022-12-24T11:41:47;99111.72;;;12.66;87.97
16664;BME280;8445;51.270;9.434;2022-12-24T11:44:23;99110.75;;;12.67;85.93
16664;BME280;8445;51.270;9.434;2022-12-24T11:46:49;99107.00;;;12.79;87.38
16664;BME280;8445;51.270;9.434;2022-12-24T11:49:26;99106.72;;;12.82;85.43
16664;BME280;8445;51.270;9.434;2022-12-24T12:00:21;99121.19;;;12.58;84.36
16664;BME280;8445;51.270;9.434;2022-12-24T12:02:48;99117.25;;;12.43;84.03
16664;BME280;8445;51.270;9.434;2022-12-24T12:05:24;99116.41;;;12.33;84.59
16664;BME280;8445;51.270;9.434;2022-12-24T12:08:07;99131.34;;;12.34;83.31
16664;BME280;8445;51.270;9.434;2022-12-24T12:10:38;99124.44;;;12.21;83.64
16664;BME280;8445;51.270;9.434;2022-12-24T12:13:29;99129.50;;;12.24;75.37
16664;BME280;8445;51.270;9.434;2022-12-24T12:16:18;99121.47;;;12.55;77.31
16664;BME280;8445;51.270;9.434;2022-12-24T12:18:53;99132.69;;;12.69;79.41
16664;BME280;8445;51.270;9.434;2022-12-24T12:21:24;99127.38;;;12.69;79.28
16664;BME280;8445;51.270;9.434;2022-12-24T12:24:06;99138.00;;;12.69;80.82
16664;BME280;8445;51.270;9.434;2022-12-24T12:26:39;99143.41;;;12.67;79.01
16664;BME280;8445;51.270;9.434;2022-12-24T12:29:23;99152.94;;;12.60;79.85
16664;BME280;8445;51.270;9.434;2022-12-24T12:31:58;99151.59;;;12.35;78.74
16664;BME280;8445;51.270;9.434;2022-12-24T12:34:31;99140.13;;;12.34;81.28
16664;BME280;8445;51.270;9.434;2022-12-24T12:37:05;99148.09;;;12.44;79.75
16664;BME280;8445;51.270;9.434;2022-12-24T12:39:34;99157.44;;;12.38;81.33
16664;BME280;8445;51.270;9.434;2022-12-24T12:48:05;99167.34;;;12.77;81.76
16664;BME280;8445;51.270;9.434;2022-12-24T12:51:07;99163.72;;;12.78;80.90
16664;BME280;8445;51.270;9.434;2022-12-24T13:01:34;99177.16;;;12.45;82.34
16664;BME280;8445;51.270;9.434;2022-12-24T13:09:59;99186.22;;;11.91;81.14
16664;BME280;8445;51.270;9.434;2022-12-24T13:18:12;99195.66;;;11.62;83.12
16664;BME280;8445;51.270;9.434;2022-12-24T13:20:46;99200.44;;;11.68;83.80
16664;BME280;8445;51.270;9.434;2022-12-24T13:23:18;99197.53;;;11.71;84.41
16664;BME280;8445;51.270;9.434;2022-12-24T13:25:46;99195.84;;;11.70;84.60
16664;BME280;8445;51.270;9.434;2022-12-24T13:28:24;99205.84;;;11.67;84.09
16664;BME280;8445;51.270;9.434;2022-12-24T13:36:11;99208.72;;;11.10;83.08
16664;BME280;8445;51.270;9.434;2022-12-24T13:47:00;99228.03;;;10.66;83.47
16664;BME280;8445;51.270;9.434;2022-12-24T13:49:31;99229.00;;;10.65;83.97
16664;BME280;8445;51.270;9.434;2022-12-24T13:52:15;99233.44;;;10.65;83.45
16664;BME280;8445;51.270;9.434;2022-12-24T13:54:49;99236.59;;;10.59;83.42
16664;BME280;8445;51.270;9.434;2022-12-24T13:57:50;99259.53;;;10.58;83.44
16664;BME280;8445;51.270;9.434;2022-12-24T14:10:45;99247.34;;;10.33;82.69
16664;BME280;8445;51.270;9.434;2022-12-24T14:21:27;99236.97;;;9.96;82.49
16664;BME280;8445;51.270;9.434;2022-12-24T14:24:00;99232.81;;;9.80;82.76
16664;BME280;8445;51.270;9.434;2022-12-24T14:26:31;99236.59;;;9.64;82.44
16664;BME280;8445;51.270;9.434;2022-12-24T14:31:35;99256.19;;;9.38;82.81
16664;BME280;8445;51.270;9.434;2022-12-24T14:34:10;99255.38;;;9.24;82.57
16664;BME280;8445;51.270;9.434;2022-12-24T14:36:37;99261.41;;;9.13;82.17
16664;BME280;8445;51.270;9.434;2022-12-24T14:39:10;99269.16;;;9.03;82.63
16664;BME280;8445;51.270;9.434;2022-12-24T14:41:51;99271.50;;;8.95;82.54
16664;BME280;8445;51.270;9.434;2022-12-24T14:44:39;99264.97;;;8.88;83.85
16664;BME280;8445;51.270;9.434;2022-12-24T14:47:24;99275.47;;;8.77;82.85
16664;BME280;8445;51.270;9.434;2022-12-24T14:50:27;99278.53;;;8.70;82.90
16664;BME280;8445;51.270;9.434;2022-12-24T14:53:18;99284.44;;;8.61;83.36
16664;BME280;8445;51.270;9.434;2022-12-24T14:55:47;99284.25;;;8.51;82.18
16664;BME280;8445;51.270;9.434;2022-12-24T15:01:24;99295.47;;;8.40;84.88
16664;BME280;8445;51.270;9.434;2022-12-24T15:04:21;99303.59;;;8.37;83.73
16664;BME280;8445;51.270;9.434;2022-12-24T15:06:49;99302.75;;;8.24;82.32
16664;BME280;8445;51.270;9.434;2022-12-24T15:09:25;99304.72;;;8.20;82.50
16664;BME280;8445;51.270;9.434;2022-12-24T15:11:54;99300.63;;;8.16;81.92
16664;BME280;8445;51.270;9.434;2022-12-24T15:14:23;99310.53;;;8.12;81.98
16664;BME280;8445;51.270;9.434;2022-12-24T15:16:54;99310.94;;;8.06;82.36
16664;BME280;8445;51.270;9.434;2022-12-24T15:19:35;99319.53;;;7.95;83.01